Time;durP1;ratioP1;P1;durP2;ratioP2;P2;SDS_P1;SDS_P2;PMS_P1;PMS_P2;Temp;Humidity;BMP_temperature;BMP_pressure;BME280_temperature;BME280_humidity;BME280_pressure;Samples;Min_cycle;Max_cycle;Signal;HPM_P1;HPM_P2
2022/05/11 00:00:10;;;;;;;1.65;1.30;;;;;;;23.37;44.23;99518.34;5132253;28;20039;-66
2022/05/11 00:02:37;;;;;;;2.30;1.50;;;;;;;23.37;44.27;99518.34;5132070;28;20129;-67
2022/05/11 00:05:07;;;;;;;2.10;1.42;;;;;;;23.38;44.28;99516.34;5132085;28;20043;-67
2022/05/11 00:07:33;;;;;;;1.75;1.27;;;;;;;23.35;44.05;99515.13;5131984;28;20047;-67
2022/05/11 00:09:58;;;;;;;2.55;1.27;;;;;;;23.34;43.91;99513.53;5132122;28;20457;-67
2022/05/11 00:12:24;;;;;;;1.92;1.38;;;;;;;23.35;44.08;99515.13;5131792;28;20073;-67
2022/05/11 00:14:49;;;;;;;1.83;1.20;;;;;;;23.29;44.16;99506.34;5131797;28;20130;-67
2022/05/11 00:17:15;;;;;;;2.10;1.20;;;;;;;23.32;44.05;99518.69;5131799;28;20075;-67
2022/05/11 00:19:40;;;;;;;1.92;1.20;;;;;;;23.31;44.17;99514.31;5131844;28;20036;-67
2022/05/11 00:22:05;;;;;;;1.80;1.13;;;;;;;23.32;44.26;99507.53;5132009;28;20039;-67
2022/05/11 00:24:31;;;;;;;1.60;1.10;;;;;;;23.32;44.00;99504.75;5132008;28;20054;-67
2022/05/11 00:26:56;;;;;;;1.90;1.20;;;;;;;23.30;44.10;99505.16;5131164;28;20100;-63
2022/05/11 00:29:22;;;;;;;2.03;1.20;;;;;;;23.31;44.24;99503.16;5113385;28;20052;-63
2022/05/11 00:31:47;;;;;;;2.08;1.30;;;;;;;23.31;44.25;99503.16;5111348;28;20048;-63
2022/05/11 00:34:13;;;;;;;1.50;1.10;;;;;;;23.30;44.35;99507.94;5111549;28;20040;-63
2022/05/11 00:36:38;;;;;;;1.67;1.13;;;;;;;23.30;44.16;99505.16;5111156;28;20038;-63
2022/05/11 00:39:04;;;;;;;2.08;1.30;;;;;;;23.29;44.29;99497.16;5110650;28;20063;-64
2022/05/11 00:41:29;;;;;;;1.75;1.23;;;;;;;23.27;44.38;99499.53;5111002;28;20063;-64
2022/05/11 00:43:59;;;;;;;1.58;1.20;;;;;;;23.26;44.42;99497.94;5110199;28;20052;-63
2022/05/11 00:46:34;;;;;;;2.10;1.30;;;;;;;23.26;44.37;99497.94;5111029;28;20124;-63
2022/05/11 00:51:55;;;;;;;1.70;1.15;;;;;;;23.27;44.56;99496.72;5109404;28;20583;-64
2022/05/11 00:54:22;;;;;;;1.67;1.20;;;;;;;23.25;44.57;99499.91;5111194;28;20114;-64
2022/05/11 00:56:53;;;;;;;2.10;1.40;;;;;;;23.24;44.50;99497.53;5110931;28;20044;-64
2022/05/11 00:59:27;;;;;;;1.80;1.30;;;;;;;23.23;44.60;99493.13;5110893;28;20089;-64
2022/05/11 01:01:58;;;;;;;1.92;1.50;;;;;;;23.24;44.72;99491.94;5110930;28;20043;-64
2022/05/11 01:04:24;;;;;;;1.85;1.30;;;;;;;23.22;44.67;99486.75;5110806;28;20071;-64
2022/05/11 01:06:50;;;;;;;2.00;1.42;;;;;;;23.24;44.49;99483.56;5113968;28;20047;-63
2022/05/11 01:09:16;;;;;;;1.80;1.25;;;;;;;23.23;44.82;99484.78;5131129;28;20070;-63
2022/05/11 01:11:47;;;;;;;1.67;1.17;;;;;;;23.22;44.89;99483.16;5131180;28;20411;-66
2022/05/11 01:14:16;;;;;;;2.63;1.40;;;;;;;23.23;44.70;99484.78;5131300;28;20418;-67
2022/05/11 01:16:42;;;;;;;1.90;1.35;;;;;;;23.21;44.90;99482.34;5129127;28;20507;-66
2022/05/11 01:19:22;;;;;;;1.83;1.33;;;;;;;23.19;44.92;99478.34;5131089;28;20251;-67
2022/05/11 01:21:57;;;;;;;1.63;1.10;;;;;;;23.19;44.92;99469.97;5131160;28;20047;-67
2022/05/11 01:24:40;;;;;;;1.80;1.30;;;;;;;23.21;44.98;99475.97;5130962;28;20074;-67
2022/05/11 01:27:27;;;;;;;1.92;1.33;;;;;;;23.18;45.17;99466.38;5130774;28;20407;-67
2022/05/11 01:29:54;;;;;;;2.00;1.50;;;;;;;23.18;45.12;99466.38;5130858;28;20042;-67
2022/05/11 01:32:20;;;;;;;1.90;1.40;;;;;;;23.19;45.01;99470.78;5130816;28;20043;-67
2022/05/11 01:34:51;;;;;;;2.22;1.40;;;;;;;23.18;45.05;99466.38;5130974;28;20042;-67
2022/05/11 01:37:17;;;;;;;1.90;1.33;;;;;;;23.18;45.06;99469.19;5130890;28;20419;-67
2022/05/11 01:39:44;;;;;;;2.20;1.38;;;;;;;23.17;44.96;99467.59;5130839;28;20119;-66
2022/05/11 01:42:11;;;;;;;2.00;1.40;;;;;;;23.17;45.08;99466.78;5130843;28;20039;-66
2022/05/11 01:44:36;;;;;;;1.90;1.40;;;;;;;23.10;45.07;99456.38;5130832;28;20055;-66
2022/05/11 01:47:02;;;;;;;1.88;1.25;;;;;;;23.15;44.94;99467.19;5130531;28;20035;-67
2022/05/11 01:49:28;;;;;;;2.22;1.50;;;;;;;23.13;45.04;99463.97;5130598;28;20043;-63
2022/05/11 01:51:54;;;;;;;1.67;1.20;;;;;;;23.13;45.00;99463.16;5130764;28;20039;-63
2022/05/11 01:54:20;;;;;;;1.75;1.25;;;;;;;23.13;44.86;99457.59;5129372;27;20031;-63
2022/05/11 01:56:45;;;;;;;1.70;1.30;;;;;;;23.09;45.06;99463.16;5130626;28;20074;-64
2022/05/11 01:59:11;;;;;;;1.92;1.40;;;;;;;23.12;45.06;99467.94;5130581;28;20035;-62
2022/05/11 02:01:40;;;;;;;2.10;1.23;;;;;;;23.11;44.92;99471.13;5130525;28;20051;-62
2022/05/11 02:07:49;;;;;;;1.90;1.30;;;;;;;23.12;44.96;99473.53;5130475;28;20499;-63
2022/05/11 02:09:36;;;;;;;1.50;1.20;;;;;;;23.12;45.10;99467.94;5130477;28;20043;-63
2022/05/11 02:12:01;;;;;;;1.98;1.20;;;;;;;23.12;45.11;99472.72;5130442;28;20051;-63
2022/05/11 02:14:26;;;;;;;2.25;1.38;;;;;;;23.10;45.20;99463.94;5130322;28;20039;-63
2022/05/11 02:16:52;;;;;;;1.95;1.38;;;;;;;23.09;45.26;99470.72;5130116;28;20035;-63
2022/05/11 02:19:17;;;;;;;2.25;1.35;;;;;;;23.08;45.16;99469.13;5130192;28;20035;-63
2022/05/11 02:21:43;;;;;;;1.80;1.40;;;;;;;23.06;45.11;99475.88;5130052;28;20395;-63
2022/05/11 02:24:08;;;;;;;1.70;1.20;;;;;;;23.04;45.19;99469.09;5130083;28;20067;-64
2022/05/11 02:26:34;;;;;;;2.10;1.40;;;;;;;23.06;45.10;99470.28;5130180;28;20049;-63
2022/05/11 02:28:59;;;;;;;1.90;1.30;;;;;;;23.05;45.15;99470.69;5129981;28;20043;-63
2022/05/11 02:31:24;;;;;;;1.70;1.27;;;;;;;23.04;45.11;99469.09;5129891;28;20039;-63
2022/05/11 02:33:50;;;;;;;2.13;1.40;;;;;;;23.05;45.21;99473.47;5130111;28;20043;-63
2022/05/11 02:36:15;;;;;;;1.85;1.30;;;;;;;23.03;45.30;99468.28;5129964;28;20051;-63
2022/05/11 02:38:42;;;;;;;1.92;1.35;;;;;;;23.03;45.42;99473.06;5129934;28;20039;-67
2022/05/11 02:41:08;;;;;;;1.83;1.30;;;;;;;23.03;45.38;99473.88;5130012;28;20039;-67
2022/05/11 02:43:33;;;;;;;2.10;1.50;;;;;;;23.04;45.37;99472.69;5129991;28;20035;-66
2022/05/11 02:46:00;;;;;;;2.03;1.40;;;;;;;23.03;45.20;99471.09;5129971;28;20467;-66
2022/05/11 02:48:26;;;;;;;2.10;1.40;;;;;;;23.05;45.29;99473.47;5129800;28;20509;-66
2022/05/11 02:50:57;;;;;;;1.92;1.45;;;;;;;23.03;45.23;99473.06;5129872;28;20148;-67
2022/05/11 02:53:25;;;;;;;1.80;1.30;;;;;;;23.02;45.42;99480.66;5129782;28;20487;-67
2022/05/11 02:55:53;;;;;;;1.77;1.30;;;;;;;23.03;45.25;99481.44;5129734;28;20066;-67
2022/05/11 02:58:21;;;;;;;1.90;1.35;;;;;;;23.02;45.29;99477.84;5129466;28;20131;-67
2022/05/11 03:00:49;;;;;;;1.98;1.30;;;;;;;23.03;45.25;99476.66;5129661;28;20043;-67
2022/05/11 03:03:16;;;;;;;2.00;1.50;;;;;;;23.01;45.23;99476.25;5129680;28;20044;-66
2022/05/11 03:05:42;;;;;;;1.75;1.30;;;;;;;22.99;45.25;99473.03;5130331;27;20051;-66
2022/05/11 03:08:08;;;;;;;2.08;1.48;;;;;;;22.98;45.24;99471.44;5133196;28;20039;-67
2022/05/11 03:10:34;;;;;;;2.53;1.50;;;;;;;22.98;45.38;99479.00;5133159;28;20043;-67
2022/05/11 03:13:02;;;;;;;1.80;1.30;;;;;;;22.97;45.47;99478.22;5133058;28;20064;-67
2022/05/11 03:15:29;;;;;;;1.92;1.20;;;;;;;22.94;45.49;99473.41;5133008;28;20039;-66
2022/05/11 03:17:54;;;;;;;2.28;1.40;;;;;;;22.96;45.24;99471.03;5132837;28;20073;-67
2022/05/11 03:20:23;;;;;;;2.22;1.50;;;;;;;22.95;45.23;99466.66;5133085;28;20042;-67
2022/05/11 03:22:52;;;;;;;2.25;1.50;;;;;;;22.91;45.35;99460.22;5132793;28;20581;-67
2022/05/11 03:25:18;;;;;;;1.83;1.42;;;;;;;22.95;45.38;99463.06;5132616;28;20620;-67
2022/05/11 03:27:43;;;;;;;1.95;1.30;;;;;;;22.96;45.26;99465.47;5132887;28;20043;-63
2022/05/11 03:30:09;;;;;;;2.00;1.50;;;;;;;22.94;45.46;99464.25;5132930;28;20043;-63
2022/05/11 03:35:20;;;;;;;2.67;1.67;;;;;;;22.92;45.40;99475.78;5132723;28;20063;-64
2022/05/11 03:37:45;;;;;;;1.90;1.30;;;;;;;22.93;45.46;99471.00;5132741;28;20035;-64
2022/05/11 03:40:12;;;;;;;1.80;1.30;;;;;;;22.92;45.55;99470.19;5132848;28;20039;-64
2022/05/11 03:42:39;;;;;;;2.00;1.40;;;;;;;22.93;45.46;99476.56;5132629;28;20088;-64
2022/05/11 03:45:06;;;;;;;2.00;1.42;;;;;;;22.92;45.28;99491.72;5132599;28;20079;-64
2022/05/11 03:47:31;;;;;;;2.28;1.50;;;;;;;22.92;45.43;99480.56;5132414;28;20055;-64
2022/05/11 03:49:57;;;;;;;2.10;1.52;;;;;;;22.91;45.29;99490.13;5132495;28;20133;-67
2022/05/11 03:52:23;;;;;;;2.33;1.60;;;;;;;22.90;45.46;99475.38;5131079;28;20070;-68
2022/05/11 03:54:48;;;;;;;2.67;1.42;;;;;;;22.89;45.42;99470.97;5132526;28;20036;-68
2022/05/11 03:57:14;;;;;;;2.28;1.40;;;;;;;22.90;45.42;99477.38;5132665;28;20092;-67
2022/05/11 03:59:39;;;;;;;2.33;1.65;;;;;;;22.90;45.62;99485.72;5132035;28;20047;-67
2022/05/11 04:02:05;;;;;;;2.22;1.50;;;;;;;22.88;45.43;99476.97;5132109;28;20039;-67
2022/05/11 04:04:30;;;;;;;2.70;1.80;;;;;;;22.88;45.58;99474.97;5132213;28;20118;-67
2022/05/11 04:06:56;;;;;;;2.58;1.60;;;;;;;22.88;45.70;99479.75;5132234;28;20047;-67
2022/05/11 04:09:21;;;;;;;2.40;1.90;;;;;;;22.87;45.56;99478.94;5132404;28;20434;-67
2022/05/11 04:11:47;;;;;;;2.60;1.77;;;;;;;22.89;45.46;99484.13;5132363;28;20070;-68
2022/05/11 04:14:12;;;;;;;3.95;2.00;;;;;;;22.89;45.71;99495.28;5132205;28;20122;-68
2022/05/11 04:16:38;;;;;;;2.42;1.90;;;;;;;22.86;45.73;99494.09;5131502;27;20095;-67
2022/05/11 04:19:03;;;;;;;1.98;1.50;;;;;;;22.86;45.54;99499.66;5131045;28;20082;-68
2022/05/11 04:21:29;;;;;;;3.22;2.30;;;;;;;22.86;45.78;99501.63;5131917;28;20074;-68
2022/05/11 04:23:54;;;;;;;2.72;1.83;;;;;;;22.82;45.61;99504.38;5131765;28;20046;-66
2022/05/11 04:26:20;;;;;;;3.05;1.90;;;;;;;22.83;45.63;99508.75;5131811;28;20436;-67
2022/05/11 04:28:46;;;;;;;2.78;2.10;;;;;;;22.84;45.56;99513.16;5131775;28;20050;-67
2022/05/11 04:31:12;;;;;;;2.97;2.10;;;;;;;22.81;45.77;99508.34;5131713;28;20047;-67
2022/05/11 04:33:38;;;;;;;2.80;1.92;;;;;;;22.79;45.72;99513.53;5131932;28;20051;-67
2022/05/11 04:36:04;;;;;;;2.95;1.90;;;;;;;22.82;45.55;99515.53;5131997;28;20066;-68
2022/05/11 04:38:30;;;;;;;2.45;1.80;;;;;;;22.80;45.66;99518.72;5131743;28;20085;-63
2022/05/11 04:40:56;;;;;;;2.78;1.80;;;;;;;22.78;45.44;99511.91;5131774;28;20043;-63
2022/05/11 04:43:21;;;;;;;2.30;1.70;;;;;;;22.82;45.82;99518.31;5131576;28;20047;-67
2022/05/11 04:45:47;;;;;;;2.60;1.83;;;;;;;22.82;45.79;99520.31;5131713;28;20068;-67
2022/05/11 04:48:15;;;;;;;3.05;1.98;;;;;;;22.82;45.82;99520.31;5131597;28;20064;-67
2022/05/11 04:50:44;;;;;;;2.63;1.73;;;;;;;22.82;45.71;99525.88;5131487;28;20039;-67
2022/05/11 04:53:11;;;;;;;2.20;1.65;;;;;;;22.81;45.97;99519.50;5131624;28;20043;-67
2022/05/11 04:55:37;;;;;;;2.80;1.70;;;;;;;22.81;46.00;99525.09;5131461;28;20031;-67
2022/05/11 04:58:04;;;;;;;2.85;1.80;;;;;;;22.76;46.12;99525.44;5131320;28;20053;-67
2022/05/11 05:00:30;;;;;;;2.53;1.80;;;;;;;22.83;46.08;99522.69;5131234;28;20076;-67
2022/05/11 05:02:55;;;;;;;2.63;1.75;;;;;;;22.83;46.05;99531.06;5131311;28;20121;-67
2022/05/11 05:05:20;;;;;;;3.00;2.05;;;;;;;22.83;46.00;99539.44;5131302;28;20050;-66
2022/05/11 05:07:46;;;;;;;2.60;1.85;;;;;;;22.83;46.01;99545.00;5130396;28;20046;-66
2022/05/11 05:10:13;;;;;;;2.33;1.70;;;;;;;22.86;46.04;99549.03;5131253;28;20039;-66
2022/05/11 05:12:43;;;;;;;2.67;1.77;;;;;;;22.83;46.19;99544.22;5131094;28;20047;-66
2022/05/11 05:15:11;;;;;;;3.05;2.10;;;;;;;22.83;46.13;99550.59;5131150;28;20070;-66
2022/05/11 05:17:37;;;;;;;2.53;1.83;;;;;;;22.79;46.02;99547.78;5130977;28;20043;-67
2022/05/11 05:20:04;;;;;;;2.60;1.90;;;;;;;22.78;46.39;99553.72;5131170;28;20092;-67
2022/05/11 05:22:30;;;;;;;2.50;1.83;;;;;;;22.76;46.34;99550.53;5130958;28;20075;-62
2022/05/11 05:24:55;;;;;;;2.55;1.83;;;;;;;22.76;46.59;99553.31;5131086;28;20062;-62
2022/05/11 05:27:21;;;;;;;2.40;1.65;;;;;;;22.76;46.37;99558.88;5130961;28;20047;-66
2022/05/11 05:32:37;;;;;;;2.30;1.73;;;;;;;22.71;46.53;99553.66;5130607;28;20058;-63
2022/05/11 05:35:11;;;;;;;2.00;1.60;;;;;;;22.77;46.40;99563.28;5130793;28;20062;-64
2022/05/11 05:37:38;;;;;;;2.88;1.88;;;;;;;22.77;46.61;99566.06;5130832;28;20047;-62
2022/05/11 05:40:05;;;;;;;2.40;1.90;;;;;;;22.76;46.63;99567.25;5130554;28;20039;-61
2022/05/11 05:42:31;;;;;;;3.15;1.70;;;;;;;22.78;46.88;99568.47;5130563;28;20062;-62
2022/05/11 05:44:56;;;;;;;18.13;2.60;;;;;;;22.77;47.01;99563.28;5130665;28;20040;-62
2022/05/11 05:47:22;;;;;;;11.25;2.85;;;;;;;22.78;46.85;99571.25;5130614;28;20062;-62
2022/05/11 05:49:48;;;;;;;22.65;2.13;;;;;;;22.77;46.77;99564.06;5130677;28;20054;-66
2022/05/11 05:52:24;;;;;;;15.95;2.42;;;;;;;22.78;46.90;99556.50;5130554;28;20099;-66
2022/05/11 05:54:51;;;;;;;11.55;2.10;;;;;;;22.81;46.75;99552.97;5130391;28;20466;-62
2022/05/11 05:57:18;;;;;;;10.95;1.98;;;;;;;22.82;46.79;99560.16;5130583;28;20050;-62
2022/05/11 05:59:45;;;;;;;15.50;2.33;;;;;;;22.83;46.91;99560.94;5130590;28;20572;-62
2022/05/11 06:02:13;;;;;;;7.75;2.00;;;;;;;22.82;46.72;99560.16;5130468;28;20056;-62
2022/05/11 06:04:40;;;;;;;6.47;1.77;;;;;;;22.84;46.84;99568.13;5130436;28;20062;-62
2022/05/11 06:07:06;;;;;;;9.93;2.20;;;;;;;22.85;46.72;99567.72;5129232;28;20521;-62
2022/05/11 06:09:31;;;;;;;10.70;2.20;;;;;;;22.87;46.68;99575.75;5130305;28;20043;-62
2022/05/11 06:11:57;;;;;;;6.93;1.80;;;;;;;22.86;46.66;99574.97;5111868;28;20567;-64
2022/05/11 06:14:22;;;;;;;5.50;2.30;;;;;;;22.85;46.50;99575.31;5104319;28;20051;-63
2022/05/11 06:16:49;;;;;;;4.30;2.00;;;;;;;22.88;46.66;99569.00;5130251;28;20535;-67
2022/05/11 06:19:14;;;;;;;5.05;2.10;;;;;;;22.87;46.49;99572.97;5130100;28;20048;-68
2022/05/11 06:21:40;;;;;;;7.30;2.10;;;;;;;22.87;46.68;99568.19;5130033;28;20050;-67
2022/05/11 06:24:06;;;;;;;3.47;2.00;;;;;;;22.89;46.55;99568.59;5130118;28;20039;-68
2022/05/11 06:26:31;;;;;;;4.05;1.92;;;;;;;22.89;46.69;99568.59;5130097;28;20052;-63
2022/05/11 06:28:56;;;;;;;5.15;1.42;;;;;;;22.90;46.48;99573.00;5130041;28;20044;-67
2022/05/11 06:31:23;;;;;;;6.88;1.75;;;;;;;22.91;46.30;99569.00;5130252;28;20418;-66
2022/05/11 06:33:50;;;;;;;4.45;1.73;;;;;;;22.90;46.33;99566.63;5130108;28;20043;-66
2022/05/11 06:36:17;;;;;;;3.63;1.70;;;;;;;22.89;46.63;99568.59;5130080;28;20108;-66
2022/05/11 06:38:43;;;;;;;2.60;1.63;;;;;;;22.91;46.61;99569.00;5101118;28;20047;-66
2022/05/11 06:41:15;;;;;;;2.65;1.77;;;;;;;22.93;46.23;99557.47;5122992;27;20316;-67
2022/05/11 06:43:41;;;;;;;2.53;1.70;;;;;;;22.92;46.46;99559.44;5123677;28;20063;-66
2022/05/11 06:46:07;;;;;;;4.25;1.77;;;;;;;22.94;46.53;99557.09;5123151;28;20487;-67
2022/05/11 06:48:33;;;;;;;3.17;1.95;;;;;;;22.94;46.31;99545.16;5117489;28;20040;-66
2022/05/11 06:50:58;;;;;;;4.15;1.80;;;;;;;22.93;46.31;99547.13;5115324;28;20047;-67
2022/05/11 06:53:25;;;;;;;3.00;1.77;;;;;;;22.96;46.49;99543.56;5115339;28;20047;-68
2022/05/11 07:01:18;;;;;;;2.17;1.45;;;;;;;23.08;46.46;99538.88;5117208;28;20422;-64
2022/05/11 07:03:44;;;;;;;9.05;2.10;;;;;;;23.04;46.48;99536.84;5121189;28;20047;-68
2022/05/11 07:06:09;;;;;;;3.22;1.60;;;;;;;23.03;46.49;99532.47;5107906;28;20100;-68
2022/05/11 07:08:38;;;;;;;5.53;1.90;;;;;;;23.02;46.34;99539.22;5108188;28;20059;-68
2022/05/11 07:13:48;;;;;;;4.47;1.77;;;;;;;23.02;46.42;99536.44;5108821;28;20066;-68
2022/05/11 07:16:15;;;;;;;2.30;1.60;;;;;;;23.04;46.15;99531.25;5108713;28;20040;-69
2022/05/11 07:18:41;;;;;;;3.85;1.65;;;;;;;23.05;46.46;99535.66;5110423;28;20421;-66
2022/05/11 07:21:07;;;;;;;2.78;1.80;;;;;;;23.04;46.09;99542.44;5105065;28;20412;-67
2022/05/11 07:23:32;;;;;;;3.28;1.83;;;;;;;23.05;46.08;99537.66;5114585;28;20182;-67
2022/05/11 07:25:58;;;;;;;2.38;1.52;;;;;;;23.06;46.13;99542.03;5108712;28;20059;-67
2022/05/11 07:28:24;;;;;;;2.30;1.63;;;;;;;23.06;46.21;99542.84;5110675;28;20564;-68
2022/05/11 07:30:51;;;;;;;2.75;1.70;;;;;;;23.06;46.04;99534.47;5109567;28;20047;-68
2022/05/11 07:33:17;;;;;;;2.67;1.55;;;;;;;23.06;45.90;99531.66;5108236;28;20052;-68
2022/05/11 07:35:44;;;;;;;2.78;1.77;;;;;;;23.07;46.02;99538.06;5108279;28;20048;-68
2022/05/11 07:38:15;;;;;;;2.40;1.60;;;;;;;23.08;45.87;99533.31;5107649;28;20059;-67
2022/05/11 07:40:42;;;;;;;2.60;1.83;;;;;;;23.08;45.86;99522.13;5107842;28;20058;-68
2022/05/11 07:43:08;;;;;;;2.38;1.60;;;;;;;23.09;45.89;99535.69;5092794;28;20519;-62
2022/05/11 07:45:34;;;;;;;2.83;1.60;;;;;;;23.10;45.88;99526.13;5107212;28;20129;-62
2022/05/11 07:48:00;;;;;;;2.00;1.58;;;;;;;23.15;45.75;99517.41;5109271;28;20043;-62
2022/05/11 07:50:25;;;;;;;2.83;1.40;;;;;;;23.10;45.79;99520.56;5108443;28;20091;-61
2022/05/11 07:52:52;;;;;;;2.35;1.30;;;;;;;23.18;45.77;99533.38;5109494;28;20124;-62
2022/05/11 07:55:18;;;;;;;2.58;1.55;;;;;;;23.20;45.76;99524.59;5112350;28;20523;-62
2022/05/11 08:00:28;;;;;;;2.15;1.50;;;;;;;23.18;46.06;99519.41;5109040;28;20091;-61
2022/05/11 08:02:53;;;;;;;2.22;1.58;;;;;;;23.22;45.97;99516.66;5108449;28;20045;-62
2022/05/11 08:05:20;;;;;;;2.40;1.42;;;;;;;23.22;46.08;99511.06;5107518;28;20104;-68
2022/05/11 08:07:48;;;;;;;2.42;1.40;;;;;;;23.22;46.09;99508.28;5108603;28;20188;-68
2022/05/11 08:10:22;;;;;;;2.42;1.65;;;;;;;23.21;46.18;99504.66;5110835;28;20045;-68
2022/05/11 08:12:49;;;;;;;2.15;1.63;;;;;;;23.25;46.10;99507.50;5108688;28;20043;-66
2022/05/11 08:15:16;;;;;;;2.10;1.60;;;;;;;23.24;46.07;99506.69;5108405;27;20503;-67
2022/05/11 08:17:43;;;;;;;2.92;1.67;;;;;;;23.24;46.29;99497.53;5111388;28;20047;-67
2022/05/11 08:20:17;;;;;;;2.58;1.60;;;;;;;23.23;46.19;99496.72;5111378;28;20048;-69
2022/05/11 08:22:45;;;;;;;2.28;1.70;;;;;;;23.28;46.25;99498.34;5106990;28;20099;-67
2022/05/11 08:25:13;;;;;;;2.50;1.38;;;;;;;23.28;46.26;99487.16;5093690;28;20047;-70
2022/05/11 08:27:38;;;;;;;4.47;1.45;;;;;;;23.35;46.35;99496.38;5112070;28;20650;-70
2022/05/11 08:35:34;;;;;;;2.75;1.60;;;;;;;23.47;46.02;99484.09;5110062;28;20589;-66
2022/05/11 08:37:59;;;;;;;2.10;1.52;;;;;;;23.57;45.73;99483.34;5089166;28;20035;-66
2022/05/11 08:40:46;;;;;;;6.88;2.00;;;;;;;23.60;45.96;99485.38;5108239;28;20043;-65
2022/05/11 08:43:16;;;;;;;9.05;2.17;;;;;;;23.63;45.63;99491.38;5107572;28;20050;-65
2022/05/11 08:45:45;;;;;;;4.60;2.20;;;;;;;23.57;45.73;99474.94;5119274;28;20055;-66
2022/05/11 08:48:21;;;;;;;3.50;2.63;;;;;;;23.59;45.38;99475.38;5126042;28;20035;-64
2022/05/11 08:50:47;;;;;;;4.95;2.72;;;;;;;23.57;45.67;99480.53;5123307;28;20545;-69
2022/05/11 08:53:28;;;;;;;7.32;2.50;;;;;;;23.53;45.87;99476.94;5128864;28;20529;-67
2022/05/11 08:55:56;;;;;;;2.97;1.83;;;;;;;23.56;46.12;99467.78;5128132;28;20047;-72
2022/05/11 08:58:24;;;;;;;3.00;1.90;;;;;;;23.57;46.27;99468.56;5124314;28;20548;-68
2022/05/11 09:00:52;;;;;;;3.25;2.05;;;;;;;23.59;46.41;99460.63;5127821;28;20043;-72
2022/05/11 09:03:30;;;;;;;4.68;2.20;;;;;;;23.58;46.03;99461.81;5117537;28;20215;-72
2022/05/11 09:06:00;;;;;;;3.28;1.80;;;;;;;23.63;46.27;99455.88;5123063;28;20653;-75
2022/05/11 09:08:26;;;;;;;5.32;2.00;;;;;;;23.67;46.26;99461.47;5120516;28;20043;-71
2022/05/11 09:10:52;;;;;;;4.10;1.92;;;;;;;23.69;46.26;99459.09;5121456;28;20500;-72
2022/05/11 09:13:20;;;;;;;3.10;1.90;;;;;;;23.69;45.92;99457.09;5125124;28;20043;-69
2022/05/11 09:15:53;;;;;;;3.20;1.92;;;;;;;23.74;46.21;99455.91;5113759;28;20227;-73
2022/05/11 09:18:39;;;;;;;3.75;1.85;;;;;;;23.73;45.99;99452.34;5118007;28;20043;-70
2022/05/11 09:21:24;;;;;;;5.43;1.80;;;;;;;23.73;45.72;99454.31;5118644;28;20051;-66
2022/05/11 09:24:08;;;;;;;3.00;1.98;;;;;;;23.74;45.83;99444.75;5119039;28;20065;-67
2022/05/11 09:26:40;;;;;;;2.80;1.60;;;;;;;23.77;45.83;99452.31;5111819;28;20468;-71
2022/05/11 09:29:13;;;;;;;3.38;2.00;;;;;;;23.78;45.74;99439.97;5109830;28;20518;-75
2022/05/11 09:31:39;;;;;;;2.65;1.80;;;;;;;23.82;45.72;99443.56;5120373;28;20078;-75
2022/05/11 09:34:07;;;;;;;3.08;1.90;;;;;;;23.83;45.62;99434.78;5126580;28;20075;-70
2022/05/11 09:36:42;;;;;;;2.72;1.73;;;;;;;23.85;45.63;99437.19;5125427;27;20039;-73
2022/05/11 09:39:17;;;;;;;2.25;1.80;;;;;;;23.84;45.36;99430.00;5124771;28;20062;-74
2022/05/11 09:41:49;;;;;;;3.10;1.80;;;;;;;23.89;45.05;99429.63;5105678;28;20043;-65
2022/05/11 09:44:21;;;;;;;2.63;1.70;;;;;;;23.90;45.01;99434.00;5116749;28;20035;-69
2022/05/11 09:46:47;;;;;;;2.38;1.50;;;;;;;23.94;44.77;99434.03;5110091;28;20093;-76
2022/05/11 09:49:15;;;;;;;3.45;1.90;;;;;;;23.94;44.81;99422.88;5114816;28;20541;-73
2022/05/11 09:51:54;;;;;;;2.47;1.50;;;;;;;23.95;44.82;99419.66;5107508;28;20050;-74
2022/05/11 09:54:19;;;;;;;2.50;1.50;;;;;;;23.97;44.60;99414.47;5095714;28;20051;-69
2022/05/11 09:56:58;;;;;;;3.97;1.48;;;;;;;24.01;44.55;99420.09;5119901;28;20524;-65
2022/05/11 09:59:31;;;;;;;5.85;1.70;;;;;;;24.04;45.14;99410.91;5111002;28;20480;-71
2022/05/11 10:02:04;;;;;;;8.85;1.90;;;;;;;24.07;44.72;99412.88;5118818;27;20039;-67
2022/05/11 10:04:35;;;;;;;3.00;1.50;;;;;;;24.05;44.98;99407.69;5120563;27;20641;-74
2022/05/11 10:07:06;;;;;;;3.75;1.65;;;;;;;24.02;44.75;99400.13;5125214;28;20175;-66
2022/05/11 10:09:44;;;;;;;2.70;1.50;;;;;;;24.06;44.86;99400.09;5120789;28;20077;-73
2022/05/11 10:12:18;;;;;;;5.75;1.77;;;;;;;24.06;44.56;99400.09;5124251;28;20051;-71
2022/05/11 10:23:20;;;;;;;3.05;1.60;;;;;;;24.08;44.76;99384.56;5130330;28;20080;-69
2022/05/11 10:25:58;;;;;;;2.15;1.45;;;;;;;24.09;44.55;99388.16;5129671;28;20080;-72
2022/05/11 10:29:07;;;;;;;2.60;1.42;;;;;;;24.10;44.69;99384.97;5132497;28;20047;-70
2022/05/11 10:31:50;;;;;;;2.25;1.55;;;;;;;24.10;44.54;99382.16;5046448;28;20083;-70
2022/05/11 10:34:32;;;;;;;3.75;1.55;;;;;;;24.11;44.61;99378.16;5043777;28;20064;-71
2022/05/11 10:37:15;;;;;;;2.88;1.30;;;;;;;24.08;44.68;99367.00;5048184;28;20075;-71
2022/05/11 10:39:55;;;;;;;3.60;1.50;;;;;;;24.08;44.50;99367.81;5039910;28;20072;-71
2022/05/11 10:42:36;;;;;;;3.22;1.60;;;;;;;24.06;44.53;99363.78;5043414;28;20053;-72
2022/05/11 10:45:19;;;;;;;3.83;1.40;;;;;;;24.06;44.50;99353.41;5045010;28;20140;-71
2022/05/11 10:48:00;;;;;;;;;;;;;;;24.08;44.49;99345.44;5047351;28;21043;-71
2022/05/11 10:50:43;;;;;;;2.33;1.70;;;;;;;24.07;44.60;99341.03;5039972;28;20015;-72
2022/05/11 10:53:37;;;;;;;2.55;1.70;;;;;;;24.07;44.63;99337.44;5043645;28;20217;-72
2022/05/11 10:56:36;;;;;;;2.35;1.48;;;;;;;24.05;44.50;99331.47;5045018;28;20044;-72
2022/05/11 10:59:24;;;;;;;2.83;1.58;;;;;;;24.07;44.52;99329.06;5041177;28;20096;-71
2022/05/11 11:02:35;;;;;;;2.38;1.50;;;;;;;24.08;44.47;99317.50;5036368;28;20800;-72
2022/05/11 11:05:39;;;;;;;2.70;1.75;;;;;;;24.07;44.81;99303.91;5012161;28;20036;-72
2022/05/11 11:08:08;;;;;;;3.08;1.42;;;;;;;24.10;44.76;99303.91;5015489;28;20053;-70
2022/05/11 11:10:57;;;;;;;2.38;1.55;;;;;;;24.06;44.54;99296.72;5034231;28;20092;-70
2022/05/11 11:13:45;;;;;;;3.95;1.50;;;;;;;24.11;44.57;99296.34;5034305;28;20056;-71
2022/05/11 11:16:12;;;;;;;2.33;1.38;;;;;;;24.16;44.95;99291.16;5042575;28;20129;-70
2022/05/11 11:18:43;;;;;;;2.28;1.50;;;;;;;24.15;44.65;99291.56;5038669;28;20053;-68
2022/05/11 11:21:10;;;;;;;4.38;1.48;;;;;;;24.14;44.97;99281.53;5036836;28;20452;-69
2022/05/11 11:23:41;;;;;;;1.92;1.30;;;;;;;24.14;44.76;99281.53;5038497;28;20057;-70
2022/05/11 11:26:12;;;;;;;3.67;1.60;;;;;;;24.13;44.63;99277.97;5034235;28;20049;-71
2022/05/11 11:28:40;;;;;;;3.83;1.45;;;;;;;24.13;44.47;99269.56;5043496;28;20094;-71
2022/05/11 11:31:15;;;;;;;3.65;1.50;;;;;;;24.14;44.37;99259.19;5040010;28;20045;-69
2022/05/11 11:34:01;;;;;;;5.60;1.38;;;;;;;24.16;44.61;99262.41;5028884;28;20433;-69
2022/05/11 11:36:33;;;;;;;2.10;1.30;;;;;;;24.13;44.34;99246.41;5047313;28;20045;-70
2022/05/11 11:39:04;;;;;;;3.85;1.70;;;;;;;24.16;44.16;99252.03;5033730;28;20133;-69
2022/05/11 11:41:32;;;;;;;2.55;1.40;;;;;;;24.17;44.11;99242.44;5057123;28;20368;-68
2022/05/11 11:44:00;;;;;;;2.10;1.20;;;;;;;24.19;44.27;99244.03;5120933;28;20043;-68
2022/05/11 11:46:37;;;;;;;3.22;1.67;;;;;;;24.22;44.44;99238.44;5121391;28;20086;-70
2022/05/11 11:49:20;;;;;;;7.80;1.40;;;;;;;24.21;44.12;99234.03;5130375;28;20043;-67
2022/05/11 11:51:56;;;;;;;4.22;1.40;;;;;;;24.24;44.13;99229.66;5125243;28;20108;-70
2022/05/11 11:54:47;;;;;;;3.17;1.65;;;;;;;24.25;44.17;99231.25;5129349;28;20043;-69
2022/05/11 11:57:12;;;;;;;1.83;1.33;;;;;;;24.32;44.02;99232.03;5126352;28;20109;-74
2022/05/11 11:59:40;;;;;;;1.83;1.33;;;;;;;24.32;43.91;99214.44;5117586;28;20039;-69
2022/05/11 12:02:43;;;;;;;3.95;1.40;;;;;;;24.38;44.09;99212.88;5121938;27;20056;-73
2022/05/11 12:05:43;;;;;;;1.92;1.30;;;;;;;24.39;44.20;99211.66;5124211;28;20054;-73
2022/05/11 12:16:58;;;;;;;2.03;1.38;;;;;;;24.41;44.63;99198.88;5111015;28;20053;-72
2022/05/11 12:19:29;;;;;;;2.75;1.38;;;;;;;24.43;44.75;99198.47;5124451;28;20521;-71
2022/05/11 12:22:20;;;;;;;2.90;1.48;;;;;;;24.47;44.44;99196.47;5117751;28;20043;-65
2022/05/11 12:24:49;;;;;;;2.47;1.45;;;;;;;24.51;44.58;99188.88;5121164;28;20093;-61
2022/05/11 12:27:31;;;;;;;2.10;1.50;;;;;;;24.58;44.23;99188.03;5120104;28;20081;-62
2022/05/11 12:30:01;;;;;;;2.00;1.30;;;;;;;24.59;44.33;99184.03;5119134;28;20051;-62